Latest Weather Observations for Clermont Airport

IDQ60801

Issued at 7:05 pm EST Wednesday 17 September 2014 (issued every 30 minutes, with the page automatically refreshed every 10 minutes)

About weather observations | Map of weather stations | Latest weather observations for QLD | Other Formats
Station Details ID: 035124 Name: CLERMONT AIRPORT Lat: -22.78 Lon: 147.62 Height: 270.27 m
Data from the previous 72 hours. | See also: Recent months at Clermont Airport
Date/Time
EST
Temp
°C
App
Temp
°C
Dew
Point
Rel
Hum
%
Delta-T
°C
Wind Press
QNH
hPa
Press
MSL
hPa
Rain
since 9 am
mm
Dir
 
Spd
km/h
Gust
km/h
Spd
kts
Gust
kts
17/07:00pm 23.5 20.7 -3.7 16 11.7 SW 2 4 1 2 1015.5 1014.5 0.0
17/06:30pm 26.1 22.3 -5.5 12 13.4 SW 6 7 3 4 1015.2 1014.2 0.0
17/06:00pm 27.4 23.3 -6.9 10 14.4 WSW 7 9 4 5 1014.8 1013.8 0.0
17/05:30pm 29.2 23.6 -6.9 9 15.4 SW 15 24 8 13 1014.5 1013.5 0.0
17/05:00pm 30.1 24.5 -6.2 9 15.8 SW 15 24 8 13 1014.2 1013.2 0.0
17/04:30pm 30.7 25.3 -9.0 7 16.5 WSW 13 24 7 13 1013.9 1013.0 0.0
17/04:00pm 30.8 23.7 -8.9 7 16.6 SSW 22 35 12 19 1013.7 1012.8 0.0
17/03:30pm 31.3 27.0 -5.3 9 16.3 WSW 9 19 5 10 1013.7 1012.8 0.0
17/03:00pm 31.0 25.9 -5.5 9 16.2 WSW 13 19 7 10 1013.7 1012.8 0.0
17/02:30pm 31.2 26.4 -2.7 11 15.8 WSW 13 20 7 11 1013.9 1013.0 0.0
17/02:00pm 31.2 25.3 -0.5 13 15.3 W 20 28 11 15 1014.3 1013.3 0.0
17/01:30pm 30.2 26.7 -1.2 13 14.9 WNW 7 17 4 9 1014.9 1013.9 0.0
17/01:00pm 30.1 25.3 -2.4 12 15.1 SW 13 22 7 12 1015.4 1014.4 0.0
17/12:30pm 29.0 25.3 -0.2 15 14.0 SW 9 20 5 11 1015.9 1014.9 0.0
17/12:00pm 29.7 26.2 3.6 19 13.4 NW 11 22 6 12 1016.3 1015.4 0.0
17/11:30am 28.6 24.9 4.2 21 12.6 W 13 20 7 11 1017.0 1016.1 0.0
17/11:00am 28.1 23.5 3.7 21 12.4 W 17 28 9 15 1017.3 1016.4 0.0
17/10:30am 27.1 22.7 4.8 24 11.5 WNW 17 22 9 12 1017.8 1016.9 0.0
17/10:00am 26.6 22.6 5.0 25 11.1 W 15 22 8 12 1018.4 1017.4 0.0
17/09:30am 25.8 22.0 5.9 28 10.4 NW 15 22 8 12 1018.5 1017.5 0.0
17/09:00am 25.4 21.5 7.1 31 9.7 NW 17 24 9 13 1018.4 1017.4 0.0
17/08:30am 23.8 19.4 6.6 33 9.0 NNW 19 26 10 14 1018.3 1017.3 0.0
17/08:00am 21.6 19.8 9.5 46 6.6 WNW 9 15 5 8 1018.1 1017.1 0.0
17/07:30am 18.6 18.2 9.7 56 4.8 NE 2 4 1 2 1017.9 1017.0 0.0
17/07:00am 15.5 15.0 9.4 67 3.2 NNE 2 4 1 2 1017.5 1016.6 0.0
17/06:30am 13.2 11.6 8.1 71 2.6 WNW 6 7 3 4 1017.2 1016.3 0.0
17/06:00am 14.4 12.7 8.4 67 3.1 WNW 7 7 4 4 1016.9 1016.0 0.0
17/05:30am 15.3 13.6 8.5 64 3.5 NW 7 11 4 6 1016.5 1015.6 0.0
17/05:00am 15.7 14.1 8.0 60 3.9 NW 6 7 3 4 1016.3 1015.4 0.0
17/04:30am 16.3 14.8 8.3 59 4.1 WNW 6 7 3 4 1016.2 1015.3 0.0
17/04:00am 16.5 14.7 8.0 57 4.4 WNW 7 9 4 5 1016.0 1015.1 0.0
17/03:30am 17.6 15.0 7.9 53 5.0 W 11 22 6 12 1015.9 1014.9 0.0
17/03:00am 17.3 15.6 7.6 53 5.0 N 6 11 3 6 1015.0 1014.0 0.0
17/02:30am 18.2 15.5 7.3 49 5.6 N 11 17 6 9 1015.0 1014.0 0.0
17/02:00am 18.9 15.6 6.4 44 6.3 N 13 20 7 11 1015.3 1014.3 0.0
17/01:30am 18.9 16.0 6.4 44 6.3 N 11 17 6 9 1015.4 1014.4 0.0
17/01:00am 19.4 15.6 5.8 41 6.8 N 15 20 8 11 1015.6 1014.6 0.0
17/12:30am 18.3 16.3 7.1 48 5.7 N 7 11 4 6 1015.7 1014.7 0.0
17/12:00am 17.8 15.6 6.3 47 5.7 N 7 9 4 5 1016.0 1015.1 0.0
 
Date/Time
EST
Temp
°C
App
Temp
°C
Dew
Point
Rel
Hum
%
Delta-T
°C
Wind Press
QNH
hPa
Press
MSL
hPa
Rain
since 9 am
mm
Dir
 
Spd
km/h
Gust
km/h
Spd
kts
Gust
kts
16/11:30pm 17.8 15.2 6.0 46 5.9 NNE 9 11 5 6 1016.1 1015.2 0.0
16/11:00pm 17.5 15.1 5.1 44 6.0 NNE 7 9 4 5 1016.1 1015.2 0.0
16/10:30pm 16.7 14.6 5.9 49 5.3 NNE 6 9 3 5 1016.2 1015.3 0.0
16/10:00pm 15.1 13.9 6.4 56 4.3 N 2 4 1 2 1016.1 1015.2 0.0
16/09:30pm 16.6 14.5 5.6 48 5.4 N 6 7 3 4 1016.1 1015.2 0.0
16/09:00pm 17.9 17.2 7.0 49 5.5 CALM 0 0 0 0 1016.2 1015.3 0.0
16/08:30pm 18.2 17.4 6.7 47 5.8 CALM 0 0 0 0 1016.0 1015.1 0.0
16/08:00pm 18.7 18.0 6.9 46 6.0 CALM 0 0 0 0 1015.6 1014.6 0.0
16/07:30pm 20.1 18.9 4.6 36 7.6 CALM 0 0 0 0 1015.2 1014.2 0.0
16/07:00pm 22.0 20.9 5.0 33 8.5 CALM 0 0 0 0 1014.9 1013.9 0.0
16/06:30pm 23.6 21.4 3.5 27 9.9 S 4 6 2 3 1014.4 1013.4 0.0
16/06:00pm 26.8 24.2 3.3 22 11.8 S 6 9 3 5 1013.8 1012.9 0.0
16/05:30pm 28.4 25.7 2.6 19 12.9 SSE 6 11 3 6 1013.6 1012.7 0.0
16/05:00pm 29.0 26.2 2.3 18 13.3 SSE 6 11 3 6 1013.3 1012.4 0.0
16/04:30pm 29.6 26.6 1.1 16 14.0 SE 6 9 3 5 1013.3 1012.4 0.0
16/04:00pm 29.6 26.4 2.8 18 13.6 S 9 15 5 8 1013.3 1012.4 0.0
16/03:30pm 29.7 27.0 2.9 18 13.6 ESE 6 13 3 7 1013.5 1012.6 0.0
16/03:00pm 29.0 25.8 3.1 19 13.1 SSE 9 15 5 8 1013.7 1012.8 0.0
16/02:30pm 29.5 26.8 3.5 19 13.3 SE 7 17 4 9 1014.0 1013.1 0.0
16/02:00pm 29.7 26.2 3.6 19 13.4 SSW 11 19 6 10 1014.6 1013.6 0.0
16/01:30pm 28.8 26.0 2.9 19 13.1 S 7 20 4 11 1015.1 1014.1 0.0
16/01:00pm 28.8 26.1 3.6 20 12.9 ESE 7 17 4 9 1015.5 1014.5 0.0
16/12:30pm 28.7 26.1 4.2 21 12.6 S 7 20 4 11 1016.1 1015.2 0.0
16/12:00pm 28.0 25.5 5.0 23 12.0 ENE 7 19 4 10 1016.7 1015.8 0.0
16/11:30am 27.2 23.9 4.3 23 11.7 N 11 22 6 12 1017.3 1016.4 0.0
16/11:00am 26.9 24.6 4.6 24 11.4 S 6 13 3 7 1017.8 1016.9 0.0
16/10:30am 26.3 23.0 4.7 25 11.1 N 11 17 6 9 1018.2 1017.2 0.0
16/10:00am 26.1 23.4 7.2 30 10.1 N 11 20 6 11 1018.6 1017.6 0.0
16/09:30am 24.7 22.2 8.2 35 8.9 NNW 11 17 6 9 1018.9 1017.9 0.0
16/09:00am 23.1 21.1 8.8 40 7.7 NW 9 15 5 8 1018.9 1017.9 0.0
16/08:30am 21.9 20.6 10.1 47 6.5 N 7 19 4 10 1018.8 1017.8 0.0
16/08:00am 17.8 17.8 9.7 59 4.3 CALM 0 0 0 0 1018.8 1017.8 0.0
16/07:30am 14.4 14.1 8.8 69 2.9 CALM 0 0 0 0 1018.6 1017.6 0.0
16/07:00am 10.9 10.2 6.8 76 2.0 CALM 0 0 0 0 1018.5 1017.5 0.0
16/06:30am 8.0 7.1 6.0 87 0.9 CALM 0 0 0 0 1018.1 1017.1 0.0
16/06:00am 7.9 7.0 5.9 87 0.9 CALM 0 0 0 0 1017.6 1016.7 0.0
16/05:30am 8.3 7.3 5.6 83 1.2 CALM 0 0 0 0 1017.6 1016.7 0.0
16/05:00am 8.1 7.1 5.4 83 1.2 CALM 0 0 0 0 1017.4 1016.5 0.0
16/04:30am 8.9 8.0 6.0 82 1.3 CALM 0 0 0 0 1017.0 1016.1 0.0
16/04:00am 8.8 7.8 5.7 81 1.4 CALM 0 0 0 0 1016.7 1015.8 0.0
16/03:30am 9.3 7.6 6.0 80 1.5 NW 4 6 2 3 1016.5 1015.6 0.0
16/03:00am 9.4 7.7 5.8 78 1.7 NW 4 6 2 3 1016.7 1015.8 0.0
16/02:30am 10.3 8.7 6.3 76 1.9 NW 4 6 2 3 1016.8 1015.9 0.0
16/02:00am 12.2 10.4 5.6 64 3.1 NNW 4 6 2 3 1016.8 1015.9 0.0
16/01:30am 13.2 11.0 6.1 62 3.4 NNW 7 11 4 6 1017.0 1016.1 0.0
16/01:00am 11.8 9.4 6.9 72 2.4 WNW 9 15 5 8 1017.0 1016.1 0.0
16/12:30am 10.6 8.6 6.2 74 2.1 W 6 6 3 3 1017.0 1016.1 0.0
16/12:00am 11.0 9.8 6.6 74 2.1 NNW 2 4 1 2 1017.2 1016.3 0.0
 
Date/Time
EST
Temp
°C
App
Temp
°C
Dew
Point
Rel
Hum
%
Delta-T
°C
Wind Press
QNH
hPa
Press
MSL
hPa
Rain
since 9 am
mm
Dir
 
Spd
km/h
Gust
km/h
Spd
kts
Gust
kts
15/11:30pm 11.6 10.8 6.7 72 2.4 CALM 0 0 0 0 1017.2 1016.3 0.0
15/11:00pm 13.3 12.7 7.5 68 2.9 CALM 0 0 0 0 1017.2 1016.3 0.0
15/10:30pm 12.2 10.8 7.3 72 2.4 N 4 7 2 4 1017.1 1016.2 0.0
15/10:00pm 13.7 12.9 6.6 62 3.5 CALM 0 0 0 0 1017.0 1016.1 0.0
15/09:30pm 14.7 13.9 6.5 58 4.0 CALM 0 0 0 0 1017.0 1016.1 0.0
15/09:00pm 15.2 14.7 7.7 61 3.8 CALM 0 0 0 0 1017.0 1016.1 0.0
15/08:30pm 16.2 15.5 6.9 54 4.7 CALM 0 0 0 0 1016.9 1016.0 0.0
15/08:00pm 17.9 17.1 6.4 47 5.8 CALM 0 0 0 0 1016.7 1015.8 0.0
15/07:30pm 20.8 19.8 5.6 37 7.6 CALM 0 0 0 0 1016.4 1015.5 0.0
15/07:00pm 23.0 20.8 5.4 32 8.9 SSE 6 7 3 4 1016.2 1015.3 0.0
15/06:30pm 23.5 21.1 4.5 29 9.5 SE 6 7 3 4 1015.9 1014.9 0.0
15/06:00pm 24.7 22.2 4.5 27 10.2 SE 7 13 4 7 1015.7 1014.7 0.0
15/05:30pm 25.8 22.3 3.7 24 11.1 SSE 11 17 6 9 1015.5 1014.5 0.0
15/05:00pm 26.7 23.3 3.9 23 11.5 SE 11 20 6 11 1015.2 1014.2 0.0
15/04:30pm 26.9 23.4 3.4 22 11.8 ESE 11 19 6 10 1015.0 1014.0 0.0
15/04:00pm 27.7 24.7 4.1 22 12.1 SSE 9 19 5 10 1014.8 1013.8 0.0
15/03:30pm 26.2 22.1 4.1 24 11.2 ESE 15 24 8 13 1014.9 1013.9 0.0
15/03:00pm 26.3 23.4 4.7 25 11.1 ESE 9 19 5 10 1015.1 1014.1 0.0
15/02:30pm 26.9 24.0 4.6 24 11.5 SSW 9 15 5 8 1015.3 1014.3 0.0
15/02:00pm 26.5 23.3 4.9 25 11.1 ESE 11 19 6 10 1015.6 1014.6 0.0
15/01:30pm 27.2 24.3 4.9 24 11.5 NE 9 19 5 10 1015.9 1014.9 0.0
15/01:00pm 27.5 22.7 4.5 23 11.8 S 19 28 10 15 1016.4 1015.5 0.0
15/12:30pm 25.3 23.4 6.5 30 9.9 E 6 9 3 5 1017.0 1016.1 0.0
15/12:00pm 25.3 22.8 5.0 27 10.4 E 7 17 4 9 1017.6 1016.7 0.0
15/11:30am 25.1 23.6 9.0 36 8.8 SE 7 19 4 10 1018.1 1017.1 0.0
15/11:00am 23.6 22.4 11.6 47 6.8 SSW 9 15 5 8 1018.7 1017.7 0.0
15/10:30am 23.0 22.6 12.3 51 6.2 SSE 6 11 3 6 1019.3 1018.4 0.0
15/10:00am 22.0 22.9 12.8 56 5.3 CALM 0 4 0 2 1019.7 1018.8 0.0
15/09:30am 20.8 21.0 13.0 61 4.5 SE 4 9 2 5 1019.9 1019.0 0.0
15/09:00am 19.2 19.7 12.9 67 3.6 SSW 2 6 1 3 1020.1 1019.2 -
15/08:30am 18.3 18.2 13.4 73 2.8 ESE 6 9 3 5 1020.1 1019.2 -
15/08:00am 16.0 15.4 11.8 76 2.3 SSE 6 7 3 4 1020.1 1019.2 -
15/07:30am 13.9 14.0 11.4 85 1.3 W 2 4 1 2 1019.8 1018.9 -
15/07:00am 11.0 10.9 9.3 89 0.9 CALM 0 0 0 0 1019.8 1018.9 -
15/06:30am 9.6 9.3 8.7 94 0.4 CALM 0 0 0 0 1019.5 1018.6 -
15/06:00am 9.3 8.9 8.1 92 0.6 CALM 0 0 0 0 1019.2 1018.3 -
15/05:30am 9.2 8.7 7.8 91 0.7 CALM 0 0 0 0 1019.0 1018.0 -
15/05:00am 9.5 9.1 8.1 91 0.7 CALM 0 0 0 0 1018.9 1017.9 -
15/04:30am 9.9 9.6 8.5 91 0.7 CALM 0 0 0 0 1018.8 1017.8 -
15/04:00am 10.3 10.0 8.6 89 0.8 CALM 0 0 0 0 1018.6 1017.6 -
15/03:30am 10.8 9.8 8.9 88 1.0 SSW 4 4 2 2 1018.6 1017.6 -
15/03:00am 11.3 10.4 9.2 87 1.1 SW 4 6 2 3 1018.6 1017.6 0.0
15/02:30am 12.0 11.8 9.2 83 1.4 CALM 0 0 0 0 1018.5 1017.5 -
15/02:00am 15.4 15.2 11.8 79 2.0 N 4 7 2 4 1018.7 1017.7 -
15/01:30am 15.9 15.4 12.1 78 2.1 N 6 9 3 5 1018.8 1017.8 -
15/01:00am 15.3 14.6 11.5 78 2.1 N 6 7 3 4 1018.8 1017.8 -
15/12:30am 14.7 13.6 10.1 74 2.4 NNE 6 7 3 4 1019.0 1018.0 -
15/12:00am 15.1 14.1 9.0 67 3.2 N 4 6 2 3 1019.2 1018.3 -
 
Date/Time
EST
Temp
°C
App
Temp
°C
Dew
Point
Rel
Hum
%
Delta-T
°C
Wind Press
QNH
hPa
Press
MSL
hPa
Rain
since 9 am
mm
Dir
 
Spd
km/h
Gust
km/h
Spd
kts
Gust
kts
14/11:30pm 15.0 13.7 9.1 68 3.1 NNE 6 7 3 4 1019.1 1018.1 -
14/11:00pm 15.4 14.1 9.1 66 3.3 NNE 6 9 3 5 1019.5 1018.6 -
14/10:30pm 14.4 13.6 9.6 73 2.5 NNE 4 6 2 3 1019.6 1018.7 -
14/10:00pm 14.4 14.1 10.0 75 2.3 NE 2 6 1 3 1019.6 1018.7 -
14/09:30pm 16.2 16.1 9.4 64 3.6 CALM 0 0 0 0 1019.4 1018.5 -
14/09:00pm 18.1 17.1 8.9 55 4.8 SSE 4 6 2 3 1019.3 1018.4 -
14/08:30pm 18.9 17.5 8.8 52 5.3 S 6 7 3 4 1019.2 1018.3 -
14/08:00pm 20.4 19.0 8.7 47 6.2 SSE 6 9 3 5 1018.8 1017.8 -
14/07:30pm 21.2 19.6 8.1 43 6.9 SSE 6 11 3 6 1018.5 1017.5 -

Other Formats:

Comma delimited format used in spreadsheet applications
http://www.bom.gov.au/fwo/IDQ60801/IDQ60801.94395.axf

JavaScript Object Notation format (JSON) in row-major order
http://www.bom.gov.au/fwo/IDQ60801/IDQ60801.94395.json